sensor_id;sensor_type;location;lat;lon;timestamp;temperature;humidity
67572;SHT31;54397;47.506;19.158;2023-04-15T00:00:02;7.95;86.22
67572;SHT31;54397;47.506;19.158;2023-04-15T00:03:26;8.10;85.45
67572;SHT31;54397;47.506;19.158;2023-04-15T00:06:50;8.28;84.97
67572;SHT31;54397;47.506;19.158;2023-04-15T00:10:15;8.41;84.35
67572;SHT31;54397;47.506;19.158;2023-04-15T00:13:37;8.53;83.71
67572;SHT31;54397;47.506;19.158;2023-04-15T00:17:00;8.57;83.71
67572;SHT31;54397;47.506;19.158;2023-04-15T00:20:24;8.26;85.02
67572;SHT31;54397;47.506;19.158;2023-04-15T00:23:45;8.34;85.10
67572;SHT31;54397;47.506;19.158;2023-04-15T00:27:12;8.28;85.86
67572;SHT31;54397;47.506;19.158;2023-04-15T00:30:36;8.13;86.58
67572;SHT31;54397;47.506;19.158;2023-04-15T00:33:59;8.30;85.82
67572;SHT31;54397;47.506;19.158;2023-04-15T00:37:20;8.32;85.96
67572;SHT31;54397;47.506;19.158;2023-04-15T00:40:43;8.34;85.75
67572;SHT31;54397;47.506;19.158;2023-04-15T00:44:05;8.29;86.38
67572;SHT31;54397;47.506;19.158;2023-04-15T00:47:28;8.22;86.92
67572;SHT31;54397;47.506;19.158;2023-04-15T00:50:50;8.07;87.21
67572;SHT31;54397;47.506;19.158;2023-04-15T00:54:14;8.07;87.23
67572;SHT31;54397;47.506;19.158;2023-04-15T00:57:41;8.20;86.14
67572;SHT31;54397;47.506;19.158;2023-04-15T01:01:05;8.28;86.22
67572;SHT31;54397;47.506;19.158;2023-04-15T01:04:29;8.28;85.81
67572;SHT31;54397;47.506;19.158;2023-04-15T01:07:51;8.23;86.39
67572;SHT31;54397;47.506;19.158;2023-04-15T01:11:14;8.14;87.16
67572;SHT31;54397;47.506;19.158;2023-04-15T01:14:38;8.12;87.14
67572;SHT31;54397;47.506;19.158;2023-04-15T01:18:01;8.12;87.34
67572;SHT31;54397;47.506;19.158;2023-04-15T01:21:23;8.09;87.26
67572;SHT31;54397;47.506;19.158;2023-04-15T01:24:54;8.09;87.51
67572;SHT31;54397;47.506;19.158;2023-04-15T01:28:17;8.10;87.09
67572;SHT31;54397;47.506;19.158;2023-04-15T01:31:39;8.09;87.98
67572;SHT31;54397;47.506;19.158;2023-04-15T01:35:03;8.13;87.92
67572;SHT31;54397;47.506;19.158;2023-04-15T01:38:28;8.06;87.76
67572;SHT31;54397;47.506;19.158;2023-04-15T01:41:53;8.05;88.12
67572;SHT31;54397;47.506;19.158;2023-04-15T01:45:15;8.19;87.61
67572;SHT31;54397;47.506;19.158;2023-04-15T01:48:37;8.16;87.67
67572;SHT31;54397;47.506;19.158;2023-04-15T01:52:01;8.36;86.84
67572;SHT31;54397;47.506;19.158;2023-04-15T01:55:23;8.44;86.34
67572;SHT31;54397;47.506;19.158;2023-04-15T01:58:47;8.22;86.90
67572;SHT31;54397;47.506;19.158;2023-04-15T02:02:11;8.19;87.22
67572;SHT31;54397;47.506;19.158;2023-04-15T02:05:35;8.33;85.67
67572;SHT31;54397;47.506;19.158;2023-04-15T02:08:59;8.22;86.60
67572;SHT31;54397;47.506;19.158;2023-04-15T02:12:26;8.23;86.55
67572;SHT31;54397;47.506;19.158;2023-04-15T02:15:49;8.37;86.29
67572;SHT31;54397;47.506;19.158;2023-04-15T02:19:14;8.37;85.72
67572;SHT31;54397;47.506;19.158;2023-04-15T02:22:36;8.22;85.78
67572;SHT31;54397;47.506;19.158;2023-04-15T02:25:58;8.17;86.02
67572;SHT31;54397;47.506;19.158;2023-04-15T02:29:20;8.39;85.63
67572;SHT31;54397;47.506;19.158;2023-04-15T02:32:43;8.26;86.57
67572;SHT31;54397;47.506;19.158;2023-04-15T02:36:05;8.14;87.25
67572;SHT31;54397;47.506;19.158;2023-04-15T02:39:31;8.19;87.56
67572;SHT31;54397;47.506;19.158;2023-04-15T02:42:58;8.41;86.56
67572;SHT31;54397;47.506;19.158;2023-04-15T02:46:22;8.59;85.14
67572;SHT31;54397;47.506;19.158;2023-04-15T02:49:44;8.37;86.19
67572;SHT31;54397;47.506;19.158;2023-04-15T02:53:08;8.36;86.47
67572;SHT31;54397;47.506;19.158;2023-04-15T02:56:37;8.36;87.01
67572;SHT31;54397;47.506;19.158;2023-04-15T03:00:01;8.29;87.27
67572;SHT31;54397;47.506;19.158;2023-04-15T03:03:26;8.29;88.02
67572;SHT31;54397;47.506;19.158;2023-04-15T03:06:49;8.40;87.65
67572;SHT31;54397;47.506;19.158;2023-04-15T03:10:11;8.63;85.90
67572;SHT31;54397;47.506;19.158;2023-04-15T03:13:38;8.64;86.07
67572;SHT31;54397;47.506;19.158;2023-04-15T03:17:02;8.65;85.15
67572;SHT31;54397;47.506;19.158;2023-04-15T03:20:23;8.53;85.80
67572;SHT31;54397;47.506;19.158;2023-04-15T03:23:48;8.50;85.77
67572;SHT31;54397;47.506;19.158;2023-04-15T03:27:10;8.44;86.65
67572;SHT31;54397;47.506;19.158;2023-04-15T03:30:31;8.70;85.89
67572;SHT31;54397;47.506;19.158;2023-04-15T03:33:53;8.50;86.40
67572;SHT31;54397;47.506;19.158;2023-04-15T03:37:15;8.77;86.00
67572;SHT31;54397;47.506;19.158;2023-04-15T03:40:38;8.81;85.47
67572;SHT31;54397;47.506;19.158;2023-04-15T03:44:02;8.88;85.13
67572;SHT31;54397;47.506;19.158;2023-04-15T03:47:23;9.05;84.65
67572;SHT31;54397;47.506;19.158;2023-04-15T03:50:48;8.92;85.03
67572;SHT31;54397;47.506;19.158;2023-04-15T03:54:09;9.18;84.51
67572;SHT31;54397;47.506;19.158;2023-04-15T03:57:35;8.97;85.51
67572;SHT31;54397;47.506;19.158;2023-04-15T04:00:59;8.78;86.19
67572;SHT31;54397;47.506;19.158;2023-04-15T04:04:23;8.85;86.12
67572;SHT31;54397;47.506;19.158;2023-04-15T04:07:48;8.72;87.10
67572;SHT31;54397;47.506;19.158;2023-04-15T04:11:10;8.84;86.67
67572;SHT31;54397;47.506;19.158;2023-04-15T04:14:32;8.64;87.64
67572;SHT31;54397;47.506;19.158;2023-04-15T04:17:55;8.51;87.93
67572;SHT31;54397;47.506;19.158;2023-04-15T04:21:19;8.51;88.16
67572;SHT31;54397;47.506;19.158;2023-04-15T04:24:42;8.51;88.71
67572;SHT31;54397;47.506;19.158;2023-04-15T04:28:05;8.72;87.57
67572;SHT31;54397;47.506;19.158;2023-04-15T04:31:27;8.87;86.75
67572;SHT31;54397;47.506;19.158;2023-04-15T04:34:52;8.82;86.86
67572;SHT31;54397;47.506;19.158;2023-04-15T04:38:13;8.88;86.14
67572;SHT31;54397;47.506;19.158;2023-04-15T04:41:37;8.95;86.56
67572;SHT31;54397;47.506;19.158;2023-04-15T04:45:02;9.09;85.45
67572;SHT31;54397;47.506;19.158;2023-04-15T04:48:23;9.15;85.09
67572;SHT31;54397;47.506;19.158;2023-04-15T04:51:45;9.30;85.42
67572;SHT31;54397;47.506;19.158;2023-04-15T04:55:10;9.50;84.92
67572;SHT31;54397;47.506;19.158;2023-04-15T04:58:31;9.43;83.50
67572;SHT31;54397;47.506;19.158;2023-04-15T05:01:53;9.39;84.42
67572;SHT31;54397;47.506;19.158;2023-04-15T05:05:17;9.53;84.41
67572;SHT31;54397;47.506;19.158;2023-04-15T05:08:41;9.42;84.35
67572;SHT31;54397;47.506;19.158;2023-04-15T05:12:03;9.46;84.86
67572;SHT31;54397;47.506;19.158;2023-04-15T05:15:25;9.18;85.09
67572;SHT31;54397;47.506;19.158;2023-04-15T05:18:49;9.22;85.33
67572;SHT31;54397;47.506;19.158;2023-04-15T05:22:14;9.27;85.65
67572;SHT31;54397;47.506;19.158;2023-04-15T05:25:35;9.32;84.90
67572;SHT31;54397;47.506;19.158;2023-04-15T05:28:57;9.42;85.34
67572;SHT31;54397;47.506;19.158;2023-04-15T05:32:19;9.44;85.08
67572;SHT31;54397;47.506;19.158;2023-04-15T05:35:41;9.74;83.98
67572;SHT31;54397;47.506;19.158;2023-04-15T05:39:05;10.09;82.39
67572;SHT31;54397;47.506;19.158;2023-04-15T05:42:29;10.33;82.24
67572;SHT31;54397;47.506;19.158;2023-04-15T05:45:53;10.33;82.38
67572;SHT31;54397;47.506;19.158;2023-04-15T05:49:19;10.38;81.38
67572;SHT31;54397;47.506;19.158;2023-04-15T05:52:44;10.28;81.49
67572;SHT31;54397;47.506;19.158;2023-04-15T05:56:06;10.15;81.02
67572;SHT31;54397;47.506;19.158;2023-04-15T05:59:30;9.81;82.20
67572;SHT31;54397;47.506;19.158;2023-04-15T06:02:58;9.75;83.44
67572;SHT31;54397;47.506;19.158;2023-04-15T06:06:22;9.74;83.10
67572;SHT31;54397;47.506;19.158;2023-04-15T06:09:44;9.85;83.96
67572;SHT31;54397;47.506;19.158;2023-04-15T06:13:06;10.05;82.81
67572;SHT31;54397;47.506;19.158;2023-04-15T06:16:28;10.02;83.15
67572;SHT31;54397;47.506;19.158;2023-04-15T06:19:52;10.15;82.78
67572;SHT31;54397;47.506;19.158;2023-04-15T06:23:19;10.06;82.26
67572;SHT31;54397;47.506;19.158;2023-04-15T06:26:42;10.11;82.18
67572;SHT31;54397;47.506;19.158;2023-04-15T06:30:07;10.22;82.27
67572;SHT31;54397;47.506;19.158;2023-04-15T06:33:29;10.11;82.54
67572;SHT31;54397;47.506;19.158;2023-04-15T06:36:54;10.15;82.62
67572;SHT31;54397;47.506;19.158;2023-04-15T06:40:20;10.22;82.15
67572;SHT31;54397;47.506;19.158;2023-04-15T06:43:45;10.39;81.54
67572;SHT31;54397;47.506;19.158;2023-04-15T06:47:07;10.59;80.69
67572;SHT31;54397;47.506;19.158;2023-04-15T06:50:29;10.84;80.69
67572;SHT31;54397;47.506;19.158;2023-04-15T06:53:51;10.93;79.58
67572;SHT31;54397;47.506;19.158;2023-04-15T06:57:15;10.96;80.16
67572;SHT31;54397;47.506;19.158;2023-04-15T07:00:37;11.00;79.78
67572;SHT31;54397;47.506;19.158;2023-04-15T07:03:59;10.87;79.14
67572;SHT31;54397;47.506;19.158;2023-04-15T07:07:21;10.98;79.73
67572;SHT31;54397;47.506;19.158;2023-04-15T07:10:43;10.85;80.51
67572;SHT31;54397;47.506;19.158;2023-04-15T07:14:04;11.22;79.19
67572;SHT31;54397;47.506;19.158;2023-04-15T07:17:27;11.32;77.42
67572;SHT31;54397;47.506;19.158;2023-04-15T07:20:48;11.52;76.60
67572;SHT31;54397;47.506;19.158;2023-04-15T07:24:10;11.90;74.80
67572;SHT31;54397;47.506;19.158;2023-04-15T07:27:37;11.91;75.24
67572;SHT31;54397;47.506;19.158;2023-04-15T07:30:58;11.80;74.90
67572;SHT31;54397;47.506;19.158;2023-04-15T07:34:23;12.42;73.24
67572;SHT31;54397;47.506;19.158;2023-04-15T07:37:44;12.86;70.75
67572;SHT31;54397;47.506;19.158;2023-04-15T07:41:09;13.37;69.13
67572;SHT31;54397;47.506;19.158;2023-04-15T07:44:30;13.69;68.07
67572;SHT31;54397;47.506;19.158;2023-04-15T07:47:55;13.93;67.76
67572;SHT31;54397;47.506;19.158;2023-04-15T07:51:19;14.10;65.77
67572;SHT31;54397;47.506;19.158;2023-04-15T07:54:44;14.45;65.58
67572;SHT31;54397;47.506;19.158;2023-04-15T07:58:05;14.20;64.58
67572;SHT31;54397;47.506;19.158;2023-04-15T08:01:27;13.59;64.59
67572;SHT31;54397;47.506;19.158;2023-04-15T08:04:51;13.57;65.98
67572;SHT31;54397;47.506;19.158;2023-04-15T08:08:14;13.90;64.41
67572;SHT31;54397;47.506;19.158;2023-04-15T08:11:36;14.01;65.37
67572;SHT31;54397;47.506;19.158;2023-04-15T08:15:03;14.26;62.65
67572;SHT31;54397;47.506;19.158;2023-04-15T08:18:27;13.57;63.60
67572;SHT31;54397;47.506;19.158;2023-04-15T08:21:51;13.55;63.67
67572;SHT31;54397;47.506;19.158;2023-04-15T08:25:15;13.82;63.96
67572;SHT31;54397;47.506;19.158;2023-04-15T08:28:38;14.27;62.14
67572;SHT31;54397;47.506;19.158;2023-04-15T08:32:00;14.29;61.08
67572;SHT31;54397;47.506;19.158;2023-04-15T08:35:22;14.29;60.84
67572;SHT31;54397;47.506;19.158;2023-04-15T08:38:44;13.68;62.54
67572;SHT31;54397;47.506;19.158;2023-04-15T08:42:11;13.53;63.04
67572;SHT31;54397;47.506;19.158;2023-04-15T08:45:38;13.28;62.53
67572;SHT31;54397;47.506;19.158;2023-04-15T08:49:03;13.07;64.35
67572;SHT31;54397;47.506;19.158;2023-04-15T08:52:25;13.00;66.09
67572;SHT31;54397;47.506;19.158;2023-04-15T08:55:50;13.06;64.80
67572;SHT31;54397;47.506;19.158;2023-04-15T08:59:13;13.07;62.66
67572;SHT31;54397;47.506;19.158;2023-04-15T09:02:37;12.90;64.25
67572;SHT31;54397;47.506;19.158;2023-04-15T09:06:02;13.03;64.27
67572;SHT31;54397;47.506;19.158;2023-04-15T09:09:26;13.23;63.58
67572;SHT31;54397;47.506;19.158;2023-04-15T09:12:48;13.31;63.66
67572;SHT31;54397;47.506;19.158;2023-04-15T09:16:10;13.14;63.33
67572;SHT31;54397;47.506;19.158;2023-04-15T09:19:34;13.18;64.59
67572;SHT31;54397;47.506;19.158;2023-04-15T09:22:55;13.40;63.98
67572;SHT31;54397;47.506;19.158;2023-04-15T09:26:37;13.30;63.87
67572;SHT31;54397;47.506;19.158;2023-04-15T09:30:07;13.40;62.08
67572;SHT31;54397;47.506;19.158;2023-04-15T09:33:31;13.50;62.05
67572;SHT31;54397;47.506;19.158;2023-04-15T09:36:54;13.64;63.02
67572;SHT31;54397;47.506;19.158;2023-04-15T09:40:34;13.55;62.06
67572;SHT31;54397;47.506;19.158;2023-04-15T09:43:56;13.37;63.74
67572;SHT31;54397;47.506;19.158;2023-04-15T09:47:30;13.30;64.26
67572;SHT31;54397;47.506;19.158;2023-04-15T09:50:57;13.36;63.70
67572;SHT31;54397;47.506;19.158;2023-04-15T09:54:22;13.61;63.38
67572;SHT31;54397;47.506;19.158;2023-04-15T09:57:49;13.11;62.85
67572;SHT31;54397;47.506;19.158;2023-04-15T10:01:10;13.04;62.56
67572;SHT31;54397;47.506;19.158;2023-04-15T10:04:35;13.38;62.93
67572;SHT31;54397;47.506;19.158;2023-04-15T10:07:57;13.75;61.73
67572;SHT31;54397;47.506;19.158;2023-04-15T10:11:19;13.99;60.34
67572;SHT31;54397;47.506;19.158;2023-04-15T10:14:52;13.66;61.47
67572;SHT31;54397;47.506;19.158;2023-04-15T10:18:19;13.38;62.19
67572;SHT31;54397;47.506;19.158;2023-04-15T10:21:42;13.43;62.92
67572;SHT31;54397;47.506;19.158;2023-04-15T10:25:06;13.36;62.40
67572;SHT31;54397;47.506;19.158;2023-04-15T10:28:31;13.21;63.41
67572;SHT31;54397;47.506;19.158;2023-04-15T10:31:55;13.61;63.92
67572;SHT31;54397;47.506;19.158;2023-04-15T10:35:20;13.68;64.31
67572;SHT31;54397;47.506;19.158;2023-04-15T10:38:43;13.62;63.72
67572;SHT31;54397;47.506;19.158;2023-04-15T10:42:15;13.64;63.61
67572;SHT31;54397;47.506;19.158;2023-04-15T10:45:37;13.33;63.76
67572;SHT31;54397;47.506;19.158;2023-04-15T10:49:06;13.66;64.93
67572;SHT31;54397;47.506;19.158;2023-04-15T10:52:28;13.37;65.14
67572;SHT31;54397;47.506;19.158;2023-04-15T10:55:52;13.23;64.45
67572;SHT31;54397;47.506;19.158;2023-04-15T10:59:16;13.02;63.73
67572;SHT31;54397;47.506;19.158;2023-04-15T11:06:19;12.90;63.64
67572;SHT31;54397;47.506;19.158;2023-04-15T11:09:41;12.63;65.90
67572;SHT31;54397;47.506;19.158;2023-04-15T11:13:05;12.63;67.48
67572;SHT31;54397;47.506;19.158;2023-04-15T11:16:43;12.52;69.21
67572;SHT31;54397;47.506;19.158;2023-04-15T11:20:06;12.40;69.91
67572;SHT31;54397;47.506;19.158;2023-04-15T11:27:00;12.48;68.84
67572;SHT31;54397;47.506;19.158;2023-04-15T11:30:33;12.34;69.51
67572;SHT31;54397;47.506;19.158;2023-04-15T11:33:57;12.65;68.85
67572;SHT31;54397;47.506;19.158;2023-04-15T11:37:27;12.97;67.73
67572;SHT31;54397;47.506;19.158;2023-04-15T11:40:54;13.03;66.22
67572;SHT31;54397;47.506;19.158;2023-04-15T11:44:19;13.21;66.42
67572;SHT31;54397;47.506;19.158;2023-04-15T11:47:43;13.27;64.86
67572;SHT31;54397;47.506;19.158;2023-04-15T11:51:05;12.95;65.86
67572;SHT31;54397;47.506;19.158;2023-04-15T11:54:28;12.90;66.14
67572;SHT31;54397;47.506;19.158;2023-04-15T11:58:22;13.09;65.06
67572;SHT31;54397;47.506;19.158;2023-04-15T12:01:49;13.34;64.80
67572;SHT31;54397;47.506;19.158;2023-04-15T12:05:12;13.55;64.29
67572;SHT31;54397;47.506;19.158;2023-04-15T12:09:07;13.02;64.90
67572;SHT31;54397;47.506;19.158;2023-04-15T12:12:30;12.90;65.56
67572;SHT31;54397;47.506;19.158;2023-04-15T12:15:54;13.00;66.62
67572;SHT31;54397;47.506;19.158;2023-04-15T12:19:42;13.16;65.52
67572;SHT31;54397;47.506;19.158;2023-04-15T12:23:09;13.28;65.86
67572;SHT31;54397;47.506;19.158;2023-04-15T12:26:42;13.28;65.97
67572;SHT31;54397;47.506;19.158;2023-04-15T12:30:04;13.16;66.49
67572;SHT31;54397;47.506;19.158;2023-04-15T12:33:32;13.16;66.77
67572;SHT31;54397;47.506;19.158;2023-04-15T12:36:58;13.03;66.29
67572;SHT31;54397;47.506;19.158;2023-04-15T12:40:19;12.92;68.03
67572;SHT31;54397;47.506;19.158;2023-04-15T12:43:46;12.80;67.52
67572;SHT31;54397;47.506;19.158;2023-04-15T12:47:09;12.65;67.07
67572;SHT31;54397;47.506;19.158;2023-04-15T12:50:31;12.59;67.66
67572;SHT31;54397;47.506;19.158;2023-04-15T12:53:52;12.65;67.98
67572;SHT31;54397;47.506;19.158;2023-04-15T12:57:17;12.44;66.81
67572;SHT31;54397;47.506;19.158;2023-04-15T13:00:38;12.61;67.43
67572;SHT31;54397;47.506;19.158;2023-04-15T13:04:00;12.76;67.19
67572;SHT31;54397;47.506;19.158;2023-04-15T13:07:22;12.89;66.43
67572;SHT31;54397;47.506;19.158;2023-04-15T13:10:47;13.00;66.49
67572;SHT31;54397;47.506;19.158;2023-04-15T13:14:09;12.92;66.68
67572;SHT31;54397;47.506;19.158;2023-04-15T13:17:37;12.88;67.06
67572;SHT31;54397;47.506;19.158;2023-04-15T13:20:59;12.75;67.42
67572;SHT31;54397;47.506;19.158;2023-04-15T13:24:21;12.73;67.06
67572;SHT31;54397;47.506;19.158;2023-04-15T13:27:43;12.79;67.38
67572;SHT31;54397;47.506;19.158;2023-04-15T13:31:04;12.83;66.49
67572;SHT31;54397;47.506;19.158;2023-04-15T13:34:29;12.85;66.97
67572;SHT31;54397;47.506;19.158;2023-04-15T13:37:56;12.92;66.56
67572;SHT31;54397;47.506;19.158;2023-04-15T13:41:20;12.79;67.37
67572;SHT31;54397;47.506;19.158;2023-04-15T13:44:41;12.69;67.38
67572;SHT31;54397;47.506;19.158;2023-04-15T13:48:03;12.72;67.81
67572;SHT31;54397;47.506;19.158;2023-04-15T13:51:27;12.89;67.29
67572;SHT31;54397;47.506;19.158;2023-04-15T13:54:51;12.69;67.08
67572;SHT31;54397;47.506;19.158;2023-04-15T13:58:38;12.58;67.88
67572;SHT31;54397;47.506;19.158;2023-04-15T14:02:03;12.55;68.53
67572;SHT31;54397;47.506;19.158;2023-04-15T14:05:25;12.58;69.16
67572;SHT31;54397;47.506;19.158;2023-04-15T14:08:49;12.62;69.71
67572;SHT31;54397;47.506;19.158;2023-04-15T14:12:13;12.63;69.77
67572;SHT31;54397;47.506;19.158;2023-04-15T14:15:35;12.72;69.03
67572;SHT31;54397;47.506;19.158;2023-04-15T14:18:57;12.70;69.26
67572;SHT31;54397;47.506;19.158;2023-04-15T14:22:21;12.68;69.48
67572;SHT31;54397;47.506;19.158;2023-04-15T14:25:45;12.70;68.68
67572;SHT31;54397;47.506;19.158;2023-04-15T14:29:08;12.65;69.33
67572;SHT31;54397;47.506;19.158;2023-04-15T14:32:30;12.70;69.51
67572;SHT31;54397;47.506;19.158;2023-04-15T14:35:52;12.59;70.01
67572;SHT31;54397;47.506;19.158;2023-04-15T14:39:14;12.59;70.22
67572;SHT31;54397;47.506;19.158;2023-04-15T14:42:35;12.51;70.82
67572;SHT31;54397;47.506;19.158;2023-04-15T14:45:57;12.62;70.11
67572;SHT31;54397;47.506;19.158;2023-04-15T14:49:18;12.70;70.38
67572;SHT31;54397;47.506;19.158;2023-04-15T14:52:43;12.75;70.36
67572;SHT31;54397;47.506;19.158;2023-04-15T14:56:05;12.82;70.31
67572;SHT31;54397;47.506;19.158;2023-04-15T14:59:29;12.73;70.54
67572;SHT31;54397;47.506;19.158;2023-04-15T15:02:53;12.80;69.59
67572;SHT31;54397;47.506;19.158;2023-04-15T15:06:15;12.78;68.70
67572;SHT31;54397;47.506;19.158;2023-04-15T15:09:39;12.73;65.98
67572;SHT31;54397;47.506;19.158;2023-04-15T15:13:04;12.55;66.14
67572;SHT31;54397;47.506;19.158;2023-04-15T15:16:28;12.66;66.66
67572;SHT31;54397;47.506;19.158;2023-04-15T15:19:53;12.78;66.75
67572;SHT31;54397;47.506;19.158;2023-04-15T15:23:17;12.92;70.26
67572;SHT31;54397;47.506;19.158;2023-04-15T15:26:41;13.13;67.01
67572;SHT31;54397;47.506;19.158;2023-04-15T15:30:03;13.40;68.76
67572;SHT31;54397;47.506;19.158;2023-04-15T15:33:25;13.58;69.10
67572;SHT31;54397;47.506;19.158;2023-04-15T15:36:48;13.28;65.12
67572;SHT31;54397;47.506;19.158;2023-04-15T15:40:10;13.04;68.98
67572;SHT31;54397;47.506;19.158;2023-04-15T15:43:32;13.31;66.71
67572;SHT31;54397;47.506;19.158;2023-04-15T15:46:54;13.28;66.02
67572;SHT31;54397;47.506;19.158;2023-04-15T15:50:19;13.23;66.40
67572;SHT31;54397;47.506;19.158;2023-04-15T15:53:43;13.03;67.41
67572;SHT31;54397;47.506;19.158;2023-04-15T15:57:05;12.88;67.73
67572;SHT31;54397;47.506;19.158;2023-04-15T16:00:29;12.58;69.20
67572;SHT31;54397;47.506;19.158;2023-04-15T16:03:51;12.65;69.56
67572;SHT31;54397;47.506;19.158;2023-04-15T16:07:15;12.58;69.72
67572;SHT31;54397;47.506;19.158;2023-04-15T16:10:41;12.52;69.99
67572;SHT31;54397;47.506;19.158;2023-04-15T16:14:05;12.34;70.35
67572;SHT31;54397;47.506;19.158;2023-04-15T16:17:27;12.31;70.75
67572;SHT31;54397;47.506;19.158;2023-04-15T16:20:51;12.35;71.00
67572;SHT31;54397;47.506;19.158;2023-04-15T16:24:15;12.27;71.37
67572;SHT31;54397;47.506;19.158;2023-04-15T16:27:37;12.24;72.50
67572;SHT31;54397;47.506;19.158;2023-04-15T16:31:02;12.32;71.92
67572;SHT31;54397;47.506;19.158;2023-04-15T16:34:23;12.37;72.05
67572;SHT31;54397;47.506;19.158;2023-04-15T16:37:45;12.34;72.11
67572;SHT31;54397;47.506;19.158;2023-04-15T16:41:09;12.32;72.86
67572;SHT31;54397;47.506;19.158;2023-04-15T16:44:31;12.24;72.69
67572;SHT31;54397;47.506;19.158;2023-04-15T16:47:55;12.23;72.97
67572;SHT31;54397;47.506;19.158;2023-04-15T16:51:21;12.21;73.65
67572;SHT31;54397;47.506;19.158;2023-04-15T16:54:48;12.24;74.58
67572;SHT31;54397;47.506;19.158;2023-04-15T16:58:10;12.25;74.96
67572;SHT31;54397;47.506;19.158;2023-04-15T17:01:32;12.30;75.29
67572;SHT31;54397;47.506;19.158;2023-04-15T17:04:54;12.34;77.09
67572;SHT31;54397;47.506;19.158;2023-04-15T17:08:18;12.65;80.91
67572;SHT31;54397;47.506;19.158;2023-04-15T17:11:39;12.85;79.99
67572;SHT31;54397;47.506;19.158;2023-04-15T17:15:01;13.21;79.03
67572;SHT31;54397;47.506;19.158;2023-04-15T17:18:23;13.10;78.36
67572;SHT31;54397;47.506;19.158;2023-04-15T17:21:47;13.10;77.41
67572;SHT31;54397;47.506;19.158;2023-04-15T17:25:08;12.99;74.58
67572;SHT31;54397;47.506;19.158;2023-04-15T17:28:30;12.99;74.31
67572;SHT31;54397;47.506;19.158;2023-04-15T17:31:59;12.72;74.84
67572;SHT31;54397;47.506;19.158;2023-04-15T17:35:20;12.53;76.19
67572;SHT31;54397;47.506;19.158;2023-04-15T17:38:43;12.51;76.10
67572;SHT31;54397;47.506;19.158;2023-04-15T17:42:06;12.62;80.54
67572;SHT31;54397;47.506;19.158;2023-04-15T17:45:30;12.72;79.91
67572;SHT31;54397;47.506;19.158;2023-04-15T17:48:51;13.03;81.10
67572;SHT31;54397;47.506;19.158;2023-04-15T17:52:15;13.21;80.91
67572;SHT31;54397;47.506;19.158;2023-04-15T17:55:39;13.40;79.98
67572;SHT31;54397;47.506;19.158;2023-04-15T17:59:03;13.50;79.20
67572;SHT31;54397;47.506;19.158;2023-04-15T18:02:30;13.43;78.12
67572;SHT31;54397;47.506;19.158;2023-04-15T18:05:54;13.07;74.71
67572;SHT31;54397;47.506;19.158;2023-04-15T18:09:16;12.78;75.63
67572;SHT31;54397;47.506;19.158;2023-04-15T18:12:37;12.48;76.50
67572;SHT31;54397;47.506;19.158;2023-04-15T18:15:59;12.40;77.02
67572;SHT31;54397;47.506;19.158;2023-04-15T18:19:23;12.23;77.53
67572;SHT31;54397;47.506;19.158;2023-04-15T18:22:46;12.04;78.88
67572;SHT31;54397;47.506;19.158;2023-04-15T18:26:10;11.84;80.15
67572;SHT31;54397;47.506;19.158;2023-04-15T18:29:33;11.67;80.67
67572;SHT31;54397;47.506;19.158;2023-04-15T18:32:57;11.61;81.02
67572;SHT31;54397;47.506;19.158;2023-04-15T18:36:21;11.72;80.19
67572;SHT31;54397;47.506;19.158;2023-04-15T18:39:42;11.77;80.11
67572;SHT31;54397;47.506;19.158;2023-04-15T18:43:04;11.86;79.44
67572;SHT31;54397;47.506;19.158;2023-04-15T18:46:26;11.83;79.63
67572;SHT31;54397;47.506;19.158;2023-04-15T18:49:48;11.82;86.51
67572;SHT31;54397;47.506;19.158;2023-04-15T18:53:10;12.13;86.05
67572;SHT31;54397;47.506;19.158;2023-04-15T18:56:31;12.41;84.65
67572;SHT31;54397;47.506;19.158;2023-04-15T18:59:55;12.56;83.92
67572;SHT31;54397;47.506;19.158;2023-04-15T19:03:19;12.78;83.03
67572;SHT31;54397;47.506;19.158;2023-04-15T19:06:43;12.83;82.42
67572;SHT31;54397;47.506;19.158;2023-04-15T19:10:06;12.82;78.24
67572;SHT31;54397;47.506;19.158;2023-04-15T19:13:28;12.37;77.70
67572;SHT31;54397;47.506;19.158;2023-04-15T19:16:52;12.03;78.96
67572;SHT31;54397;47.506;19.158;2023-04-15T19:20:16;11.73;79.63
67572;SHT31;54397;47.506;19.158;2023-04-15T19:23:38;11.49;80.36
67572;SHT31;54397;47.506;19.158;2023-04-15T19:27:02;11.31;80.83
67572;SHT31;54397;47.506;19.158;2023-04-15T19:30:26;11.46;80.24
67572;SHT31;54397;47.506;19.158;2023-04-15T19:33:52;11.52;79.72
67572;SHT31;54397;47.506;19.158;2023-04-15T19:37:14;11.45;79.99
67572;SHT31;54397;47.506;19.158;2023-04-15T19:40:40;11.38;79.73
67572;SHT31;54397;47.506;19.158;2023-04-15T19:44:02;11.29;86.09
67572;SHT31;54397;47.506;19.158;2023-04-15T19:47:27;11.49;87.24
67572;SHT31;54397;47.506;19.158;2023-04-15T19:50:49;11.76;85.80
67572;SHT31;54397;47.506;19.158;2023-04-15T19:54:12;11.98;85.18
67572;SHT31;54397;47.506;19.158;2023-04-15T19:57:34;12.10;83.99
67572;SHT31;54397;47.506;19.158;2023-04-15T20:00:55;12.08;79.10
67572;SHT31;54397;47.506;19.158;2023-04-15T20:04:17;11.79;79.24
67572;SHT31;54397;47.506;19.158;2023-04-15T20:07:39;11.56;79.80
67572;SHT31;54397;47.506;19.158;2023-04-15T20:11:05;11.43;80.20
67572;SHT31;54397;47.506;19.158;2023-04-15T20:14:30;11.45;79.93
67572;SHT31;54397;47.506;19.158;2023-04-15T20:17:51;11.10;81.70
67572;SHT31;54397;47.506;19.158;2023-04-15T20:21:13;10.87;82.53
67572;SHT31;54397;47.506;19.158;2023-04-15T20:24:35;10.88;82.14
67572;SHT31;54397;47.506;19.158;2023-04-15T20:27:59;10.87;82.44
67572;SHT31;54397;47.506;19.158;2023-04-15T20:31:21;10.80;82.73
67572;SHT31;54397;47.506;19.158;2023-04-15T20:34:43;10.74;83.43
67572;SHT31;54397;47.506;19.158;2023-04-15T20:38:05;10.79;83.32
67572;SHT31;54397;47.506;19.158;2023-04-15T20:41:28;10.84;83.07
67572;SHT31;54397;47.506;19.158;2023-04-15T20:44:52;10.94;82.55
67572;SHT31;54397;47.506;19.158;2023-04-15T20:48:14;11.10;81.78
67572;SHT31;54397;47.506;19.158;2023-04-15T20:51:36;11.08;81.92
67572;SHT31;54397;47.506;19.158;2023-04-15T20:54:58;11.11;81.40
67572;SHT31;54397;47.506;19.158;2023-04-15T20:58:20;11.10;81.30
67572;SHT31;54397;47.506;19.158;2023-04-15T21:01:41;11.10;81.50
67572;SHT31;54397;47.506;19.158;2023-04-15T21:05:04;10.88;82.30
67572;SHT31;54397;47.506;19.158;2023-04-15T21:08:26;10.64;83.86
67572;SHT31;54397;47.506;19.158;2023-04-15T21:11:50;10.63;83.74
67572;SHT31;54397;47.506;19.158;2023-04-15T21:15:14;10.77;82.84
67572;SHT31;54397;47.506;19.158;2023-04-15T21:18:36;10.73;82.70